McAlester, OK

10:32 PM CDT on April 18, 2015 (GMT -0500)
McAlester Regional | | Change Station
CLOSE
Current Station
Airport
Location: McAlester,
Elevation: 768 ft
Nearby Weather Stations

Elev 768 ft 34.88 °N, 95.78 °W | Updated 39 minutes ago

Scattered Clouds
Scattered Clouds
67 °F
Feels Like 67 °F
N
5
Wind Variable Wind from ESE

Today
High -- | Low -- °F
--% Chance of Precip.
Yesterday
High -- | Low -- °F
Precip. -- in
6:47 AM 7:57 PM
New Moon, 0% visible
Pressure 29.78 in
Visibility 10.0 miles
Clouds Few 4700 ft
Few 6000 ft
Scattered Clouds 8000 ft
Dew Point 61 °F
Humidity 81%
Rainfall 0.30 in
Snow Depth Not available.
UV 0 out of 12
Pollen 3.90 out of 12
Air Quality Not available.
Flu Activity Regional
METAR KMLC 190253Z AUTO 12004KT 10SM FEW047 FEW060 SCT080 19/16 A2979 RMK AO2 LTG DSNT W SLP082 T01940161 53006

More Conditions Fewer Conditions

Pressure 29.78 in
Visibility 10.0 miles
Clouds Few 4700 ft
Few 6000 ft
Scattered Clouds 8000 ft
Dew Point 61 °F
Humidity 81%
Rainfall 0.30 in
Snow Depth Not available.
UV 0 out of 12
Pollen 3.90 out of 12
Air Quality Not available.
Flu Activity Regional
METAR KMLC 190253Z AUTO 12004KT 10SM FEW047 FEW060 SCT080 19/16 A2979 RMK AO2 LTG DSNT W SLP082 T01940161 53006

More Conditions Fewer Conditions

Nowcast | as of 9:30 PM CDT on April 18, 2015

At 9:27 PM... National Weather Service Doppler radar indicated a weakening line of showers and thunderstorms advancing into eastern Oklahoma from the southwest. Through 11:00 PM... northeastward advancing showers and thunderstorms from south central Oklahoma are expected to continue weakening as they enter the eastern part of the state. Scattered showers and thunderstorms nonetheless... will continue to affect areas to the west of Highway 75 in eastern Oklahoma. A Severe Thunderstorm Watch is in effect for locations to the west of Highway 75 in eastern Oklahoma until 2:00 am CDT Sunday.

×

10-Day Weather Forecast

Almanac

Astronomy

Apr. 18, 2015 Rise Set
Actual Time
Civil Twilight
Nautical Twilight
Astronomical Twilight
Moon
Length of Visible Light
Length of Day
Tomorrow will be .
, % of the Moon is Illuminated

Today's Extremes

State Highs State Lows

Community

WunderPhotos

Upload Photos

1,814,706 photos uploaded!

WunderBlogs® & News

Nearby

Air Quality

  Air Quality AQ Index Pollutant
Not available.

Snow Depth

Station Depth Elevation

Earthquake Activity

City Distance Mag. Time & Date
Minimum magnitude displayed is 2.5.

Coastal Water Temperatures

Place Temperature

Stations

Nearby Weather Stations

Station Location Temp. Windchill Dew Point Humidity Wind Precip. Elev Updated Type